Time;durP1;ratioP1;P1;durP2;ratioP2;P2;SDS_P1;SDS_P2;PMS_P1;PMS_P2;Temp;Humidity;BMP_temperature;BMP_pressure;BME280_temperature;BME280_humidity;BME280_pressure;Samples;Min_cycle;Max_cycle;Signal;HPM_P1;HPM_P2
2022/12/05 00:03:07;;;;;;;81.42;48.40;;;;;;;3.85;100.00;100538.13;2727283;85;21071;-91
2022/12/05 00:07:08;;;;;;;88.50;48.80;;;;;;;3.88;100.00;100532.31;2755645;85;20996;-92
2022/12/05 00:11:13;;;;;;;88.80;47.00;;;;;;;3.86;100.00;100524.03;2738635;85;21055;-91
2022/12/05 00:15:14;;;;;;;91.28;51.37;;;;;;;3.95;100.00;100520.56;2747004;85;21039;-93
2022/12/05 00:19:15;;;;;;;92.10;53.35;;;;;;;3.96;100.00;100527.53;2746541;85;21071;-90
2022/12/05 00:23:17;;;;;;;80.85;46.77;;;;;;;3.97;100.00;100530.55;2856643;82;21083;-90
2022/12/05 00:27:18;;;;;;;86.17;49.30;;;;;;;4.01;100.00;100526.83;2731806;84;20988;-90
2022/12/05 00:31:22;;;;;;;80.75;46.35;;;;;;;3.97;100.00;100527.92;2762769;84;21134;-91
2022/12/05 00:35:23;;;;;;;85.75;46.95;;;;;;;4.02;100.00;100514.05;2806201;84;21005;-93
2022/12/05 00:39:24;;;;;;;82.92;51.98;;;;;;;4.10;100.00;100517.13;2751400;85;21635;-90
2022/12/05 00:43:26;;;;;;;84.85;48.13;;;;;;;4.12;100.00;100518.38;2730694;85;21076;-91
2022/12/05 00:47:27;;;;;;;90.47;50.25;;;;;;;4.16;100.00;100520.41;2757565;86;21444;-91
2022/12/05 00:51:34;;;;;;;92.57;55.23;;;;;;;4.12;100.00;100520.53;2760788;84;21028;-89
2022/12/05 00:55:37;;;;;;;89.28;54.75;;;;;;;4.18;100.00;100518.54;2767234;85;21061;-88
2022/12/05 00:59:39;;;;;;;96.40;51.73;;;;;;;4.23;100.00;100516.52;2804839;82;22205;-92
2022/12/05 01:03:42;;;;;;;97.57;49.20;;;;;;;4.20;100.00;100507.46;2743018;85;21047;-92
2022/12/05 01:07:43;;;;;;;95.25;54.45;;;;;;;4.18;100.00;100488.26;2793186;83;21053;-91
2022/12/05 01:11:46;;;;;;;85.00;49.63;;;;;;;4.14;100.00;100484.92;2738796;86;21058;-90
2022/12/05 01:15:47;;;;;;;92.78;50.78;;;;;;;4.21;100.00;100488.09;2818173;83;21030;-90
2022/12/05 01:19:49;;;;;;;92.00;53.13;;;;;;;4.18;100.00;100497.48;2767248;85;21514;-92
2022/12/05 01:23:50;;;;;;;100.75;51.88;;;;;;;4.13;100.00;100488.04;2668069;87;21174;-90
2022/12/05 01:27:52;;;;;;;103.07;55.00;;;;;;;4.23;100.00;100491.50;2766036;84;21002;-90
2022/12/05 01:31:54;;;;;;;97.33;54.70;;;;;;;4.18;100.00;100491.73;2818555;83;21053;-91
2022/12/05 01:35:55;;;;;;;92.02;54.70;;;;;;;4.24;100.00;100498.47;2847910;83;21104;-89
2022/12/05 01:39:56;;;;;;;103.95;57.93;;;;;;;4.28;100.00;100493.41;2800059;83;21030;-90
2022/12/05 01:44:08;;;;;;;92.53;52.80;;;;;;;4.28;100.00;100495.60;2817389;83;21104;-90
2022/12/05 01:48:32;;;;;;;106.03;59.88;;;;;;;4.31;100.00;100503.78;2841151;82;21047;-91
2022/12/05 01:52:34;;;;;;;95.67;57.78;;;;;;;4.37;100.00;100504.80;2796171;84;21062;-90
2022/12/05 01:56:36;;;;;;;104.85;57.23;;;;;;;4.33;100.00;100491.42;2834728;83;21590;-88
2022/12/05 02:00:39;;;;;;;102.62;61.53;;;;;;;4.40;100.00;100498.05;2841940;83;21090;-92
2022/12/05 02:05:12;;;;;;;99.52;57.03;;;;;;;4.40;100.00;100498.05;2848129;83;20991;-91
2022/12/05 02:09:14;;;;;;;104.38;63.05;;;;;;;4.39;100.00;100497.67;2834113;83;22239;-90
2022/12/05 02:13:32;;;;;;;115.72;61.60;;;;;;;4.39;100.00;100495.03;2813654;83;21051;-89
2022/12/05 02:17:54;;;;;;;95.30;57.05;;;;;;;4.40;100.00;100491.47;2829236;82;21071;-90
2022/12/05 02:22:28;;;;;;;101.30;57.93;;;;;;;4.36;100.00;100488.62;2797904;83;21088;-90
2022/12/05 02:26:35;;;;;;;106.45;55.90;;;;;;;4.42;100.00;100490.92;2769606;84;21087;-90
2022/12/05 02:31:05;;;;;;;103.15;56.88;;;;;;;4.49;100.00;100490.58;2701013;86;21063;-89
2022/12/05 02:35:27;;;;;;;100.47;58.92;;;;;;;4.48;100.00;100490.20;2700088;86;21083;-90
2022/12/05 02:39:57;;;;;;;100.70;58.05;;;;;;;4.45;100.00;100491.69;2723365;85;21474;-90
2022/12/05 02:44:10;;;;;;;102.85;59.88;;;;;;;4.42;100.00;100491.37;2695527;86;21654;-89
2022/12/05 02:48:15;;;;;;;94.47;54.73;;;;;;;4.48;100.00;100490.20;2707030;85;21093;-91
2022/12/05 02:52:17;;;;;;;110.65;65.17;;;;;;;4.53;100.00;100476.34;2697146;84;21053;-91
2022/12/05 02:56:19;;;;;;;110.90;59.75;;;;;;;4.50;100.00;100477.80;2735804;85;21070;-89
2022/12/05 03:00:21;;;;;;;119.57;65.17;;;;;;;4.48;100.00;100470.44;2725921;85;21092;-92
2022/12/05 03:04:25;;;;;;;111.17;62.08;;;;;;;4.50;100.00;100480.42;2731317;85;21066;-91
2022/12/05 03:08:36;;;;;;;105.78;63.25;;;;;;;4.53;100.00;100477.17;2699008;85;21021;-90
2022/12/05 03:12:43;;;;;;;102.02;56.58;;;;;;;4.45;100.00;100470.61;2789205;83;21074;-90
2022/12/05 03:16:48;;;;;;;;;;;;;;;4.43;100.00;100467.59;2764920;85;21049;-91
2022/12/05 03:20:59;;;;;;;117.37;65.90;;;;;;;4.39;100.00;100471.78;2755385;85;20193;-91
2022/12/05 03:25:03;;;;;;;119.55;68.87;;;;;;;4.29;100.00;100470.09;2745733;85;21075;-91
2022/12/05 03:29:18;;;;;;;108.17;59.20;;;;;;;4.34;100.00;100462.83;2814501;83;21854;-90
2022/12/05 03:33:27;;;;;;;108.05;61.30;;;;;;;4.32;100.00;100467.78;2793214;83;21093;-88
2022/12/05 03:38:07;;;;;;;102.70;56.90;;;;;;;4.32;100.00;100463.34;2824193;82;21042;-84
2022/12/05 03:42:14;;;;;;;100.20;59.25;;;;;;;4.33;100.00;100455.86;2803081;83;21449;-88
2022/12/05 03:46:30;;;;;;;108.75;61.85;;;;;;;4.35;100.00;100461.03;2732026;85;21579;-88
2022/12/05 03:50:37;;;;;;;98.80;55.37;;;;;;;4.35;100.00;100471.11;2761957;84;21058;-88
2022/12/05 03:54:47;;;;;;;94.92;57.15;;;;;;;4.37;100.00;100477.59;2765219;84;21074;-89
2022/12/05 03:58:58;;;;;;;92.05;60.67;;;;;;;4.42;100.00;100471.16;2706575;86;21071;-88
2022/12/05 04:03:13;;;;;;;90.75;53.15;;;;;;;4.41;100.00;100461.56;2759820;84;21545;-89
2022/12/05 04:07:17;;;;;;;83.33;53.40;;;;;;;4.48;100.00;100467.36;2755893;85;21019;-88
2022/12/05 04:11:22;;;;;;;91.40;55.95;;;;;;;4.43;100.00;100454.91;2754243;85;21098;-89
2022/12/05 04:17:02;;;;;;;86.72;51.83;;;;;;;4.43;100.00;100457.54;2765366;84;21078;-87
2022/12/05 04:28:52;;;;;;;;;;;;;;;4.42;100.00;100468.98;2760596;84;21050;-87
2022/12/05 04:33:16;;;;;;;91.60;50.50;;;;;;;4.41;100.00;100458.06;2735730;85;20118;-89
2022/12/05 04:37:21;;;;;;;93.17;55.28;;;;;;;4.34;100.00;100463.28;2759121;84;21019;-88
2022/12/05 04:41:28;;;;;;;90.15;53.05;;;;;;;4.34;100.00;100460.20;2762418;84;21097;-88
2022/12/05 04:45:32;;;;;;;71.57;40.85;;;;;;;4.42;100.00;100461.08;2785896;83;21315;-87
2022/12/05 04:49:35;;;;;;;83.65;51.95;;;;;;;4.36;100.00;100452.20;2782234;83;21650;-88
2022/12/05 04:53:37;;;;;;;89.77;51.08;;;;;;;4.38;100.00;100459.55;2802564;83;21567;-87
2022/12/05 04:58:07;;;;;;;81.05;52.55;;;;;;;4.40;100.00;100459.86;2800356;83;21035;-88
2022/12/05 05:02:12;;;;;;;82.67;48.90;;;;;;;4.46;100.00;100460.45;2789878;84;21041;-88
2022/12/05 05:06:14;;;;;;;92.70;47.85;;;;;;;4.40;100.00;100453.73;2787687;84;21093;-87
2022/12/05 05:10:20;;;;;;;77.70;47.93;;;;;;;4.50;100.00;100455.40;2797646;83;21004;-87
2022/12/05 05:14:21;;;;;;;75.37;45.52;;;;;;;4.48;100.00;100459.45;2789822;84;21074;-86
2022/12/05 05:18:23;;;;;;;77.00;47.40;;;;;;;4.39;100.00;100459.47;2790665;84;21010;-89
2022/12/05 05:22:24;;;;;;;83.55;52.03;;;;;;;4.29;100.00;100455.61;2792121;83;21082;-88
2022/12/05 05:26:27;;;;;;;83.45;49.48;;;;;;;4.30;100.00;100473.12;2793290;83;21046;-87
2022/12/05 05:30:28;;;;;;;84.32;51.90;;;;;;;4.27;100.00;100464.06;2752708;83;21046;-88
2022/12/05 05:34:29;;;;;;;88.10;54.23;;;;;;;4.23;100.00;100468.66;2790454;85;21059;-87
2022/12/05 05:38:30;;;;;;;91.30;50.98;;;;;;;4.23;100.00;100480.96;2794785;83;20995;-88
2022/12/05 05:42:31;;;;;;;81.28;52.08;;;;;;;4.20;100.00;100470.59;2790428;84;21585;-88
2022/12/05 05:46:34;;;;;;;88.52;48.30;;;;;;;4.12;100.00;100462.61;2791888;83;21031;-89
2022/12/05 05:50:36;;;;;;;79.20;47.50;;;;;;;4.21;100.00;100462.59;2769602;85;21642;-88
2022/12/05 05:54:37;;;;;;;101.75;50.12;;;;;;;4.19;100.00;100463.63;2769477;85;21032;-88
2022/12/05 05:58:39;;;;;;;100.05;53.95;;;;;;;4.16;100.00;100476.96;2770699;85;21076;-87
2022/12/05 06:02:41;;;;;;;81.63;48.13;;;;;;;4.21;100.00;100473.61;2766232;85;21067;-88
2022/12/05 06:06:42;;;;;;;83.65;49.93;;;;;;;4.22;100.00;100468.25;2776708;84;21082;-88
2022/12/05 06:10:43;;;;;;;95.25;51.00;;;;;;;4.20;100.00;100465.33;2782928;84;21629;-88
2022/12/05 06:14:47;;;;;;;83.90;52.17;;;;;;;4.25;100.00;100464.16;2790089;83;21090;-89
2022/12/05 06:18:50;;;;;;;79.75;49.33;;;;;;;4.18;100.00;100466.72;2753501;85;21107;-89
2022/12/05 06:22:51;;;;;;;73.50;46.48;;;;;;;4.19;100.00;100459.20;2708632;87;21525;-89
2022/12/05 06:26:53;;;;;;;87.02;53.08;;;;;;;4.17;100.00;100457.59;2805260;84;21030;-89
2022/12/05 06:30:54;;;;;;;88.27;51.08;;;;;;;4.23;100.00;100455.95;2700206;85;21579;-89
2022/12/05 06:34:55;;;;;;;82.90;51.45;;;;;;;4.23;100.00;100455.95;2701195;86;21067;-87
2022/12/05 06:38:57;;;;;;;86.00;49.60;;;;;;;4.21;100.00;100457.33;2728485;86;21556;-89
2022/12/05 06:42:58;;;;;;;89.00;50.35;;;;;;;4.23;100.00;100463.84;2704332;86;21079;-89
2022/12/05 06:46:59;;;;;;;82.97;48.42;;;;;;;4.29;100.00;100465.70;2724576;86;21083;-88
2022/12/05 06:51:01;;;;;;;87.85;51.90;;;;;;;4.32;100.00;100459.40;2716667;86;21174;-88
2022/12/05 06:55:02;;;;;;;92.30;52.13;;;;;;;4.28;100.00;100468.40;2798158;83;21128;-86
2022/12/05 06:59:04;;;;;;;86.70;53.00;;;;;;;4.23;100.00;100478.33;2793724;83;21529;-89
2022/12/05 07:03:05;;;;;;;102.02;52.35;;;;;;;4.28;100.00;100482.88;2817203;83;21066;-88
2022/12/05 07:07:07;;;;;;;88.75;50.33;;;;;;;4.27;100.00;100471.97;2804923;83;21530;-87
2022/12/05 07:11:08;;;;;;;94.95;53.90;;;;;;;4.30;100.00;100465.22;2770369;83;21051;-89
2022/12/05 07:15:10;;;;;;;90.17;51.92;;;;;;;4.20;100.00;100460.90;2799702;83;21034;-88
2022/12/05 07:19:11;;;;;;;90.83;54.13;;;;;;;4.32;100.00;100460.71;2799164;82;21030;-88
2022/12/05 07:23:12;;;;;;;96.82;55.70;;;;;;;4.33;100.00;100471.66;2816802;83;21561;-89
2022/12/05 07:27:15;;;;;;;86.75;54.15;;;;;;;4.38;100.00;100492.02;2794688;83;21042;-88
2022/12/05 07:31:21;;;;;;;89.62;55.90;;;;;;;4.48;100.00;100491.52;2802403;83;21046;-88
2022/12/05 07:35:22;;;;;;;;;;;;;;;4.53;100.00;100494.78;2821837;83;21025;-88
2022/12/05 07:39:23;;;;;;;85.83;54.30;;;;;;;4.50;100.00;100493.59;2804858;83;20085;-87
2022/12/05 07:43:24;;;;;;;84.85;52.00;;;;;;;4.62;100.00;100508.77;2802949;83;21775;-88
2022/12/05 07:47:29;;;;;;;95.72;54.23;;;;;;;4.70;100.00;100507.87;2814299;82;20983;-88
2022/12/05 07:51:32;;;;;;;92.88;49.70;;;;;;;4.68;100.00;100500.52;2826898;83;21038;-89
2022/12/05 07:55:33;;;;;;;89.52;52.58;;;;;;;4.73;100.00;100508.19;2773518;84;21003;-88
2022/12/05 07:59:35;;;;;;;96.90;50.23;;;;;;;4.77;100.00;100510.20;2750551;84;21484;-88
2022/12/05 08:03:36;;;;;;;86.45;45.67;;;;;;;4.74;100.00;100496.71;2749788;85;21043;-89
2022/12/05 08:07:38;;;;;;;90.10;53.15;;;;;;;4.68;100.00;100493.94;2802250;83;21042;-88
2022/12/05 08:11:39;;;;;;;95.87;57.95;;;;;;;4.71;100.00;100516.64;2774245;84;21042;-87
2022/12/05 08:15:40;;;;;;;99.40;57.83;;;;;;;4.74;100.00;100525.70;2802649;81;21074;-88
2022/12/05 08:19:42;;;;;;;85.70;50.48;;;;;;;4.86;100.00;100525.50;2784984;84;21034;-87
2022/12/05 08:23:45;;;;;;;97.97;50.10;;;;;;;4.83;100.00;100523.04;2793486;83;20968;-88
2022/12/05 08:27:46;;;;;;;94.28;55.23;;;;;;;4.89;100.00;100520.06;2789817;83;21598;-89
2022/12/05 08:31:49;;;;;;;97.97;57.75;;;;;;;4.90;100.00;100523.08;2789399;84;21043;-88
2022/12/05 08:35:50;;;;;;;99.10;54.93;;;;;;;4.95;100.00;100515.79;2796298;84;21097;-88
2022/12/05 08:39:52;;;;;;;103.62;57.08;;;;;;;4.95;100.00;100513.61;2787547;84;21106;-88
2022/12/05 08:43:56;;;;;;;92.95;55.05;;;;;;;4.94;100.00;100510.59;2755047;83;21066;-89
2022/12/05 08:47:57;;;;;;;96.57;55.92;;;;;;;4.85;100.00;100519.84;2784486;84;21010;-88
2022/12/05 08:51:58;;;;;;;100.92;55.50;;;;;;;4.88;100.00;100517.04;2833720;82;20975;-89
2022/12/05 08:56:03;;;;;;;101.78;56.08;;;;;;;4.89;100.00;100518.74;2853071;82;21038;-88
2022/12/05 09:00:05;;;;;;;98.45;55.50;;;;;;;4.93;100.00;100510.20;2852777;82;21553;-88
2022/12/05 09:04:07;;;;;;;104.30;54.42;;;;;;;4.93;100.00;100507.12;2859817;82;21535;-89
2022/12/05 09:08:08;;;;;;;95.10;54.83;;;;;;;4.95;100.00;100511.84;2852677;82;21007;-88
2022/12/05 09:12:10;;;;;;;93.55;55.52;;;;;;;4.96;100.00;100505.63;2848378;82;21153;-88
2022/12/05 09:16:16;;;;;;;111.47;60.95;;;;;;;5.05;100.00;100504.72;2844303;82;21476;-88
2022/12/05 09:20:17;;;;;;;85.47;52.33;;;;;;;5.11;100.00;100508.33;2849769;82;21034;-88
2022/12/05 09:24:19;;;;;;;103.12;56.10;;;;;;;5.13;100.00;100502.53;2852582;82;20999;-88
2022/12/05 09:28:20;;;;;;;98.00;56.45;;;;;;;5.24;100.00;100504.56;2854051;82;21066;-88
2022/12/05 09:32:21;;;;;;;91.92;54.65;;;;;;;5.26;100.00;100507.97;2873670;82;21534;-88
2022/12/05 09:36:27;;;;;;;84.87;51.63;;;;;;;5.31;100.00;100505.08;2859685;81;20991;-88
2022/12/05 09:40:29;;;;;;;96.42;54.65;;;;;;;5.36;100.00;100501.70;2856081;82;21019;-88
2022/12/05 09:45:04;;;;;;;86.20;50.95;;;;;;;5.43;100.00;100498.63;2836838;82;21020;-89
2022/12/05 09:49:08;;;;;;;84.92;48.33;;;;;;;5.52;100.00;100498.58;2835725;82;21012;-88
2022/12/05 09:53:30;;;;;;;87.60;47.50;;;;;;;5.60;100.00;100498.59;2831297;82;21039;-88
2022/12/05 09:57:40;;;;;;;83.35;47.60;;;;;;;5.60;100.00;100492.86;2829896;82;21082;-88
2022/12/05 10:01:58;;;;;;;81.42;51.18;;;;;;;5.66;100.00;100491.63;2857038;82;21118;-87
2022/12/05 10:06:23;;;;;;;83.52;51.28;;;;;;;5.61;100.00;100489.28;2832236;82;21007;-88
2022/12/05 10:10:30;;;;;;;93.95;53.30;;;;;;;5.60;100.00;100482.77;2850479;82;21058;-88
2022/12/05 10:14:55;;;;;;;88.42;50.98;;;;;;;5.53;100.00;100477.84;2798851;82;20996;-88
2022/12/05 10:19:14;;;;;;;81.02;49.27;;;;;;;5.55;100.00;100472.47;2839653;82;21553;-89
2022/12/05 10:23:23;;;;;;;86.42;50.90;;;;;;;5.53;100.00;100472.57;2827436;82;21035;-88
2022/12/05 10:27:38;;;;;;;75.87;51.25;;;;;;;5.57;100.00;100480.69;2856188;82;21071;-88
2022/12/05 10:31:40;;;;;;;79.82;49.95;;;;;;;5.52;100.00;100466.91;2844814;82;21008;-88
2022/12/05 10:35:42;;;;;;;76.00;48.52;;;;;;;5.58;100.00;100467.87;2838402;82;21039;-88
2022/12/05 10:39:45;;;;;;;91.50;52.80;;;;;;;5.58;100.00;100470.96;2850895;82;21622;-88
2022/12/05 10:43:48;;;;;;;81.87;50.00;;;;;;;5.61;100.00;100467.30;2828981;82;21041;-89
2022/12/05 10:47:55;;;;;;;86.45;48.28;;;;;;;5.61;100.00;100473.91;2825550;82;21134;-87
2022/12/05 10:51:58;;;;;;;83.78;49.63;;;;;;;5.62;100.00;100476.92;2852877;82;21036;-88
2022/12/05 10:55:59;;;;;;;75.75;44.13;;;;;;;5.54;100.00;100478.23;2823305;83;21558;-88
2022/12/05 11:00:14;;;;;;;80.60;51.48;;;;;;;5.58;100.00;100470.51;2845887;82;21063;-88
2022/12/05 11:04:28;;;;;;;91.95;49.58;;;;;;;5.58;100.00;100470.51;2823696;82;21072;-88
2022/12/05 11:08:32;;;;;;;83.37;47.43;;;;;;;5.68;100.00;100472.59;2798266;83;21099;-87
2022/12/05 11:12:38;;;;;;;82.90;48.85;;;;;;;5.74;100.00;100474.90;2827984;82;21071;-89
2022/12/05 11:16:39;;;;;;;76.00;47.20;;;;;;;5.86;100.00;100479.44;2846810;82;21053;-88
2022/12/05 11:20:40;;;;;;;74.22;48.33;;;;;;;5.94;100.00;100475.52;2828272;82;21401;-88
2022/12/05 11:24:42;;;;;;;77.10;49.40;;;;;;;5.96;100.00;100480.23;2826690;82;21039;-89
2022/12/05 11:28:44;;;;;;;77.35;48.10;;;;;;;5.98;100.00;100475.70;2828064;82;21063;-88
2022/12/05 11:32:45;;;;;;;68.85;46.58;;;;;;;6.04;100.00;100472.72;2820339;83;21023;-86
2022/12/05 11:37:04;;;;;;;78.55;46.40;;;;;;;6.07;100.00;100467.24;2852757;82;21031;-88
2022/12/05 11:41:32;;;;;;;73.50;44.58;;;;;;;6.13;100.00;100465.58;2845454;82;21063;-88
2022/12/05 11:45:59;;;;;;;82.10;50.92;;;;;;;6.26;100.00;100471.41;2834853;82;21020;-88
2022/12/05 11:50:24;;;;;;;84.03;51.83;;;;;;;6.38;100.00;100480.38;2847191;82;21007;-88
2022/12/05 11:54:50;;;;;;;68.75;47.00;;;;;;;6.47;100.00;100475.00;2856185;82;21630;-88
2022/12/05 11:59:09;;;;;;;82.92;51.45;;;;;;;6.60;100.00;100468.02;2827132;82;21535;-89
2022/12/05 12:03:42;;;;;;;80.72;49.20;;;;;;;6.68;100.00;100460.48;2857407;82;21004;-88
2022/12/05 12:08:13;;;;;;;78.42;47.85;;;;;;;6.74;100.00;100458.39;2843633;82;21007;-87
2022/12/05 12:12:29;;;;;;;75.10;48.05;;;;;;;6.76;100.00;100453.85;2817995;83;21677;-89
2022/12/05 12:17:02;;;;;;;77.30;50.15;;;;;;;6.84;100.00;100456.84;2855973;82;21468;-88
2022/12/05 12:21:38;;;;;;;67.12;47.27;;;;;;;6.84;99.66;100450.23;2849642;82;20991;-87
2022/12/05 12:26:13;;;;;;;74.95;50.73;;;;;;;6.88;99.82;100458.38;2851654;82;21025;-88
2022/12/05 12:30:23;;;;;;;80.97;50.38;;;;;;;6.94;99.21;100454.00;2834832;82;21030;-86
2022/12/05 12:34:42;;;;;;;140.80;81.22;;;;;;;7.00;99.04;100445.66;2859054;82;21091;-87
2022/12/05 12:39:04;;;;;;;112.35;69.97;;;;;;;7.05;98.74;100449.34;2730409;86;21476;-88
2022/12/05 12:43:40;;;;;;;75.78;48.55;;;;;;;7.08;98.53;100458.89;2727973;86;21099;-87
2022/12/05 12:48:25;;;;;;;74.77;45.80;;;;;;;7.13;98.55;100452.33;2723501;85;21157;-87
2022/12/05 12:52:50;;;;;;;81.85;49.42;;;;;;;7.18;98.20;100460.47;2705456;86;21039;-88
2022/12/05 12:57:21;;;;;;;87.70;53.42;;;;;;;7.24;97.90;100464.03;2707734;86;21581;-89
2022/12/05 13:01:42;;;;;;;87.15;48.85;;;;;;;7.33;98.15;100471.84;2646444;89;22354;-89
2022/12/05 13:05:50;;;;;;;66.35;44.53;;;;;;;7.34;96.66;100465.11;2638554;88;21046;-88
2022/12/05 13:09:59;;;;;;;74.70;45.17;;;;;;;7.29;96.29;100463.24;2655849;88;21107;-89
2022/12/05 13:14:02;;;;;;;70.62;45.15;;;;;;;7.19;96.37;100468.28;2691312;84;21564;-89
2022/12/05 13:18:06;;;;;;;67.80;42.05;;;;;;;7.14;96.56;100470.39;2846114;82;21021;-89
2022/12/05 13:22:08;;;;;;;66.67;43.10;;;;;;;7.09;97.16;100481.26;2846857;82;21058;-88
2022/12/05 13:26:11;;;;;;;72.08;46.60;;;;;;;7.06;97.42;100491.17;2811124;82;21035;-88
2022/12/05 13:30:17;;;;;;;69.55;45.67;;;;;;;7.05;97.35;100501.38;2839461;82;21027;-87
2022/12/05 13:34:32;;;;;;;67.97;45.45;;;;;;;6.98;97.28;100495.17;2858401;82;21027;-87
2022/12/05 13:43:02;;;;;;;71.22;43.83;;;;;;;6.91;97.70;100503.59;2812732;84;21031;-88
2022/12/05 13:47:08;;;;;;;78.05;45.28;;;;;;;6.92;98.14;100504.83;2782221;84;21079;-88
2022/12/05 13:51:15;;;;;;;68.85;43.50;;;;;;;6.93;97.77;100501.23;2794172;83;21355;-88
2022/12/05 13:55:30;;;;;;;74.70;47.85;;;;;;;6.93;97.82;100490.66;2788640;83;21597;-89
2022/12/05 14:00:09;;;;;;;65.40;44.45;;;;;;;6.93;97.94;100489.33;2787164;83;20971;-88
2022/12/05 14:04:49;;;;;;;68.55;44.63;;;;;;;6.89;97.96;100493.12;2842199;80;21763;-88
2022/12/05 14:08:52;;;;;;;68.10;46.05;;;;;;;6.82;98.07;100493.11;2778358;84;21460;-88
2022/12/05 14:13:04;;;;;;;78.10;49.30;;;;;;;6.84;98.59;100501.34;2736099;85;21598;-88
2022/12/05 14:17:07;;;;;;;81.57;48.50;;;;;;;6.92;98.67;100484.13;2777850;84;21110;-88
2022/12/05 14:21:35;;;;;;;71.10;45.67;;;;;;;6.93;97.81;100494.63;2730120;85;21200;-88
2022/12/05 14:26:16;;;;;;;72.05;46.58;;;;;;;6.95;97.81;100486.57;2768687;85;21051;-88
2022/12/05 14:30:26;;;;;;;69.22;44.67;;;;;;;7.02;97.49;100477.78;2724261;87;21055;-89
2022/12/05 14:34:37;;;;;;;80.70;48.63;;;;;;;7.08;97.38;100485.34;2771966;85;21098;-89
2022/12/05 14:38:39;;;;;;;71.97;47.40;;;;;;;7.12;97.45;100473.61;2726754;87;21720;-89
2022/12/05 14:42:51;;;;;;;78.70;48.35;;;;;;;7.22;96.76;100469.41;2773026;85;21011;-90
2022/12/05 14:46:53;;;;;;;71.82;47.27;;;;;;;7.27;95.97;100468.66;2718931;86;21056;-91
2022/12/05 14:50:56;;;;;;;82.70;50.00;;;;;;;7.26;95.79;100466.92;2782384;84;21015;-90
2022/12/05 14:55:03;;;;;;;79.95;51.80;;;;;;;7.32;96.65;100469.66;2848826;83;21113;-91
2022/12/05 14:59:09;;;;;;;100.90;60.83;;;;;;;7.35;96.09;100463.33;2847374;82;21914;-90
2022/12/05 15:03:14;;;;;;;;;;;;;;;7.41;96.18;100474.82;2759105;84;21134;-90
2022/12/05 15:07:23;;;;;;;75.80;42.50;;;;;;;7.46;96.02;100481.97;2730492;86;20115;-88
2022/12/05 15:11:28;;;;;;;66.00;41.80;;;;;;;7.48;95.34;100485.40;2786749;83;21078;-90
2022/12/05 15:15:41;;;;;;;69.40;45.17;;;;;;;7.45;94.15;100485.58;2848211;82;20971;-89
2022/12/05 15:20:02;;;;;;;73.07;45.40;;;;;;;7.28;94.71;100485.36;2848254;82;20963;-90
2022/12/05 15:24:16;;;;;;;118.45;61.13;;;;;;;7.29;95.72;100489.70;2847861;83;22281;-87
2022/12/05 15:28:19;;;;;;;111.45;60.58;;;;;;;7.17;95.49;100487.38;2835850;82;21090;-89
2022/12/05 15:32:24;;;;;;;201.65;124.27;;;;;;;7.15;95.97;100494.08;2834716;82;21414;-89
2022/12/05 15:36:34;;;;;;;191.10;114.27;;;;;;;7.11;95.64;100487.30;2844534;83;21018;-90
2022/12/05 15:40:36;;;;;;;139.20;84.92;;;;;;;7.08;95.91;100493.28;2848310;83;21010;-88
2022/12/05 15:44:37;;;;;;;85.77;53.25;;;;;;;6.95;96.38;100492.73;2837535;82;21038;-89
2022/12/05 15:48:38;;;;;;;79.85;51.23;;;;;;;6.95;97.01;100498.02;2842141;82;21586;-89
2022/12/05 15:52:52;;;;;;;84.67;53.52;;;;;;;6.94;97.16;100501.61;2834156;82;21027;-88
2022/12/05 15:57:05;;;;;;;88.22;55.92;;;;;;;6.91;97.99;100493.88;2841525;82;21023;-88
2022/12/05 16:01:23;;;;;;;61.92;48.00;;;;;;;7.06;99.21;100506.59;2842528;82;21565;-88
2022/12/05 16:05:33;;;;;;;73.95;49.67;;;;;;;7.24;98.33;100503.23;2826244;84;21591;-88
2022/12/05 16:09:39;;;;;;;77.80;52.50;;;;;;;7.19;96.25;100497.39;2834425;82;21083;-88
2022/12/05 16:13:48;;;;;;;83.03;54.25;;;;;;;7.20;97.16;100499.09;2830965;82;21019;-88
2022/12/05 16:17:56;;;;;;;87.67;57.60;;;;;;;7.19;96.86;100484.66;2822067;82;21058;-88
2022/12/05 16:22:08;;;;;;;88.07;55.63;;;;;;;7.17;96.73;100479.91;2833007;82;37134;-88
2022/12/05 16:26:15;;;;;;;93.72;57.38;;;;;;;7.04;96.49;100484.68;2838393;82;20987;-90
2022/12/05 16:30:20;;;;;;;105.00;64.42;;;;;;;7.09;98.15;100496.30;2804781;82;21078;-87
2022/12/05 16:34:24;;;;;;;135.40;83.75;;;;;;;7.19;97.71;100510.62;2839511;81;21419;-87
2022/12/05 16:38:32;;;;;;;149.05;98.67;;;;;;;7.15;96.52;100511.77;2832103;82;21079;-89
2022/12/05 16:42:31;;;;;;;153.65;92.92;;;;;;;7.02;96.74;100506.88;2840667;82;21510;-89
2022/12/05 16:46:41;;;;;;;119.47;72.60;;;;;;;7.07;98.06;100490.23;2842005;82;21054;-89
2022/12/05 16:50:42;;;;;;;121.53;71.28;;;;;;;7.07;96.91;100500.81;2845465;82;21598;-89
2022/12/05 16:54:47;;;;;;;112.12;72.20;;;;;;;6.95;97.67;100501.98;2831512;82;21019;-88
2022/12/05 16:58:49;;;;;;;92.82;63.20;;;;;;;6.88;97.96;100506.43;2858827;81;21063;-87
2022/12/05 17:02:51;;;;;;;98.92;61.23;;;;;;;6.74;98.40;100504.66;2792233;82;21043;-87
2022/12/05 17:06:52;;;;;;;96.02;59.05;;;;;;;6.63;99.01;100506.16;2845460;82;20995;-87
2022/12/05 17:10:53;;;;;;;114.08;70.08;;;;;;;6.58;99.53;100506.92;2846142;82;21003;-87
2022/12/05 17:14:54;;;;;;;110.20;69.10;;;;;;;6.56;99.97;100504.36;2851492;82;21083;-88
2022/12/05 17:18:55;;;;;;;98.17;64.47;;;;;;;6.46;100.00;100514.27;2862432;82;20967;-87
2022/12/05 17:22:57;;;;;;;95.42;58.45;;;;;;;6.57;100.00;100510.51;2818345;82;21061;-86
2022/12/05 17:26:58;;;;;;;88.87;59.77;;;;;;;6.70;100.00;100506.63;2781848;83;21063;-88
2022/12/05 17:30:59;;;;;;;110.52;70.52;;;;;;;6.70;100.00;100499.56;2834833;82;21063;-87
2022/12/05 17:35:00;;;;;;;111.28;74.10;;;;;;;6.78;100.00;100498.23;2839617;82;21602;-86
2022/12/05 17:39:01;;;;;;;109.48;72.17;;;;;;;6.82;99.93;100503.23;2837855;82;21047;-87
2022/12/05 17:43:04;;;;;;;105.37;67.25;;;;;;;6.80;99.61;100508.23;2800471;82;21039;-86
2022/12/05 17:47:05;;;;;;;64.10;49.35;;;;;;;6.77;99.98;100509.75;2832301;82;20980;-88
2022/12/05 17:51:13;;;;;;;75.35;47.40;;;;;;;6.72;100.00;100507.38;2832489;82;21397;-89
2022/12/05 17:55:22;;;;;;;71.22;49.38;;;;;;;6.72;100.00;100507.38;2829179;82;21613;-89
2022/12/05 17:59:24;;;;;;;71.77;45.58;;;;;;;6.73;100.00;100498.50;2769330;84;21025;-88
2022/12/05 18:03:25;;;;;;;80.92;50.65;;;;;;;6.77;100.00;100501.81;2830262;82;21012;-89
2022/12/05 18:07:26;;;;;;;81.10;49.03;;;;;;;6.79;100.00;100506.53;2842117;82;20982;-89
2022/12/05 18:11:27;;;;;;;69.58;44.90;;;;;;;6.81;100.00;100511.25;2834450;82;21083;-89
2022/12/05 18:15:29;;;;;;;66.40;43.70;;;;;;;6.93;100.00;100515.78;2802733;82;21034;-89
2022/12/05 18:19:30;;;;;;;76.75;48.28;;;;;;;7.04;100.00;100511.13;2774294;83;20979;-89
2022/12/05 18:23:31;;;;;;;68.75;43.58;;;;;;;7.09;99.73;100508.20;2805398;82;21019;-89
2022/12/05 18:27:35;;;;;;;72.40;46.40;;;;;;;7.13;99.22;100501.77;2834350;82;20976;-89
2022/12/05 18:31:40;;;;;;;72.47;47.27;;;;;;;7.22;99.68;100504.30;2835208;82;21015;-91
2022/12/05 18:35:40;;;;;;;62.70;43.05;;;;;;;7.17;97.86;100507.69;2753587;82;21004;-91
2022/12/05 18:39:41;;;;;;;66.45;46.33;;;;;;;7.12;98.72;100504.03;2803887;82;21074;-91
2022/12/05 18:43:43;;;;;;;74.05;48.58;;;;;;;7.10;98.79;100509.41;2828538;82;21019;-91
2022/12/05 18:47:44;;;;;;;72.85;47.73;;;;;;;7.14;98.99;100503.45;2828346;82;21043;-90
2022/12/05 18:51:45;;;;;;;67.75;48.73;;;;;;;7.16;99.02;100501.56;2746116;85;21059;-88
2022/12/05 18:55:47;;;;;;;79.30;47.45;;;;;;;7.19;98.89;100501.36;2719165;83;21078;-89
2022/12/05 18:59:50;;;;;;;80.45;52.83;;;;;;;7.21;98.43;100496.81;2795301;83;21062;-90
2022/12/05 19:03:51;;;;;;;76.42;50.78;;;;;;;7.21;98.58;100503.92;2758458;84;21011;-88